createdAt,value
2022-11-01T00:01:43.958Z,1.25
2022-11-01T00:04:11.542Z,1.24
2022-11-01T00:06:39.027Z,1.23
2022-11-01T00:09:07.164Z,1.21
2022-11-01T00:11:34.494Z,1.20
2022-11-01T00:14:02.181Z,1.21
2022-11-01T00:16:30.806Z,1.18
2022-11-01T00:18:58.224Z,1.17
2022-11-01T00:21:26.158Z,1.14
2022-11-01T00:23:53.477Z,1.15
2022-11-01T00:26:22.939Z,1.13
2022-11-01T00:28:51.103Z,1.09
2022-11-01T00:31:20.526Z,1.11
2022-11-01T00:33:49.329Z,1.07
2022-11-01T00:36:16.615Z,1.05
2022-11-01T00:38:43.907Z,1.03
2022-11-01T00:41:11.262Z,1.01
2022-11-01T00:43:38.668Z,0.98
2022-11-01T00:46:05.998Z,1.00
2022-11-01T00:48:33.254Z,1.01
2022-11-01T00:51:01.940Z,1.00
2022-11-01T00:53:29.307Z,0.95
2022-11-01T00:56:00.861Z,0.91
2022-11-01T00:58:28.478Z,0.88
2022-11-01T01:00:56.000Z,0.86
2022-11-01T01:03:23.378Z,0.85
2022-11-01T01:05:51.483Z,0.83
2022-11-01T01:08:20.701Z,0.78
2022-11-01T01:10:48.125Z,0.81
2022-11-01T01:13:15.403Z,0.75
2022-11-01T01:15:43.023Z,0.67
2022-11-01T01:18:10.480Z,0.71
2022-11-01T01:20:37.950Z,0.71
2022-11-01T01:23:05.426Z,0.74
2022-11-01T01:25:34.077Z,0.74
2022-11-01T01:28:01.747Z,0.75
2022-11-01T01:30:29.461Z,0.73
2022-11-01T01:32:56.788Z,0.69
2022-11-01T01:35:24.006Z,0.72
2022-11-01T01:37:51.408Z,0.77
2022-11-01T01:40:18.954Z,0.79
2022-11-01T01:42:47.700Z,0.80
2022-11-01T01:45:34.328Z,0.77
2022-11-01T01:48:09.665Z,0.79
2022-11-01T01:50:42.285Z,0.78
2022-11-01T01:53:15.078Z,0.73
2022-11-01T01:55:47.599Z,0.72
2022-11-01T01:58:18.508Z,0.74
2022-11-01T02:00:46.081Z,0.76
2022-11-01T02:03:14.563Z,0.74
2022-11-01T02:05:47.535Z,0.74
2022-11-01T02:08:15.833Z,0.72
2022-11-01T02:10:43.486Z,0.75
2022-11-01T02:13:12.869Z,0.74
2022-11-01T02:15:59.627Z,0.69
2022-11-01T02:18:53.359Z,0.69
2022-11-01T02:21:40.416Z,0.66
2022-11-01T02:24:45.005Z,0.70
2022-11-01T02:27:18.000Z,0.71
2022-11-01T02:30:08.920Z,0.69
2022-11-01T02:32:48.760Z,0.68
2022-11-01T02:35:23.200Z,0.65
2022-11-01T02:37:55.551Z,0.65
2022-11-01T02:40:29.084Z,0.66
2022-11-01T02:43:03.965Z,0.63
2022-11-01T02:45:36.463Z,0.60
2022-11-01T02:48:06.819Z,0.58
2022-11-01T02:50:39.134Z,0.58
2022-11-01T02:53:07.410Z,0.58
2022-11-01T02:55:36.223Z,0.60
2022-11-01T02:58:06.425Z,0.61
2022-11-01T03:00:36.154Z,0.58
2022-11-01T03:03:11.592Z,0.55
2022-11-01T03:05:55.367Z,0.55
2022-11-01T03:08:26.017Z,0.54
2022-11-01T03:11:04.032Z,0.52
2022-11-01T03:13:47.626Z,0.52
2022-11-01T03:16:22.270Z,0.50
2022-11-01T03:19:01.705Z,0.51
2022-11-01T03:21:30.773Z,0.51
2022-11-01T03:24:05.176Z,0.47
2022-11-01T03:26:35.324Z,0.47
2022-11-01T03:29:06.864Z,0.49
2022-11-01T03:31:37.912Z,0.46
2022-11-01T03:34:13.999Z,0.50
2022-11-01T03:36:48.276Z,0.50
2022-11-01T03:39:20.719Z,0.56
2022-11-01T03:41:52.085Z,0.55
2022-11-01T03:44:20.108Z,0.50
2022-11-01T03:46:47.710Z,0.50
2022-11-01T03:49:20.225Z,0.49
2022-11-01T03:51:48.683Z,0.43
2022-11-01T03:54:15.892Z,0.42
2022-11-01T03:56:43.336Z,0.42
2022-11-01T03:59:11.055Z,0.40
2022-11-01T04:01:38.395Z,0.36
2022-11-01T04:04:06.088Z,0.34
2022-11-01T04:06:34.994Z,0.27
2022-11-01T04:09:02.170Z,0.23
2022-11-01T04:11:29.531Z,0.22
2022-11-01T04:14:16.810Z,0.22
2022-11-01T04:17:02.464Z,0.22
2022-11-01T04:19:48.411Z,0.23
2022-11-01T04:22:19.417Z,0.26
2022-11-01T04:24:49.347Z,0.27
2022-11-01T04:27:16.587Z,0.27
2022-11-01T04:29:43.846Z,0.26
2022-11-01T04:32:11.141Z,0.27
2022-11-01T04:34:44.417Z,0.29
2022-11-01T04:37:12.660Z,0.26
2022-11-01T04:39:41.555Z,0.25
2022-11-01T04:42:08.838Z,0.22
2022-11-01T04:44:36.000Z,0.20
2022-11-01T04:47:03.164Z,0.16
2022-11-01T04:49:30.393Z,0.13
2022-11-01T04:51:57.687Z,0.11
2022-11-01T04:54:25.070Z,0.10
2022-11-01T04:56:53.966Z,0.12
2022-11-01T04:59:21.205Z,0.18
2022-11-01T05:01:48.834Z,0.20
2022-11-01T05:04:16.603Z,0.20
2022-11-01T05:06:44.002Z,0.23
2022-11-01T05:09:11.308Z,0.21
2022-11-01T05:11:38.613Z,0.22
2022-11-01T05:14:07.676Z,0.24
2022-11-01T05:16:34.964Z,0.24
2022-11-01T05:19:02.180Z,0.25
2022-11-01T05:21:29.468Z,0.28
2022-11-01T05:23:56.831Z,0.24
2022-11-01T05:26:24.137Z,0.20
2022-11-01T05:28:51.536Z,0.21
2022-11-01T05:31:20.301Z,0.23
2022-11-01T05:33:47.686Z,0.25
2022-11-01T05:36:15.151Z,0.25
2022-11-01T05:38:42.496Z,0.26
2022-11-01T05:41:10.093Z,0.27
2022-11-01T05:43:37.425Z,0.29
2022-11-01T05:46:05.782Z,0.33
2022-11-01T05:48:34.895Z,0.36
2022-11-01T05:51:02.150Z,0.40
2022-11-01T05:53:29.597Z,0.50
2022-11-01T05:55:56.809Z,0.53
2022-11-01T05:58:27.979Z,0.60
2022-11-01T06:00:58.912Z,0.64
2022-11-01T06:03:26.393Z,0.67
2022-11-01T06:05:55.088Z,0.70
2022-11-01T06:08:22.283Z,0.73
2022-11-01T06:10:49.596Z,0.74
2022-11-01T06:13:17.400Z,0.80
2022-11-01T06:15:45.328Z,0.85
2022-11-01T06:18:12.523Z,0.84
2022-11-01T06:20:40.009Z,0.86
2022-11-01T06:23:11.770Z,0.84
2022-11-01T06:25:39.181Z,0.86
2022-11-01T06:28:06.551Z,0.86
2022-11-01T06:30:33.825Z,0.84
2022-11-01T06:33:02.006Z,0.86
2022-11-01T06:35:29.899Z,0.90
2022-11-01T06:38:02.615Z,0.96
2022-11-01T06:40:31.223Z,0.96
2022-11-01T06:43:01.021Z,0.93
2022-11-01T06:45:28.979Z,0.96
2022-11-01T06:47:56.498Z,1.00
2022-11-01T06:50:24.399Z,1.03
2022-11-01T06:52:52.893Z,1.00
2022-11-01T06:55:20.188Z,1.03
2022-11-01T06:57:55.490Z,1.05
2022-11-01T07:00:23.362Z,1.13
2022-11-01T07:02:58.233Z,1.15
2022-11-01T07:05:25.504Z,1.19
2022-11-01T07:07:53.513Z,1.19
2022-11-01T07:10:21.199Z,1.17
2022-11-01T07:12:48.615Z,1.12
2022-11-01T07:15:17.503Z,1.18
2022-11-01T07:17:45.783Z,1.21
2022-11-01T07:20:13.109Z,1.22
2022-11-01T07:22:40.378Z,1.21
2022-11-01T07:25:07.694Z,1.20
2022-11-01T07:27:36.958Z,1.25
2022-11-01T07:30:05.194Z,1.32
2022-11-01T07:32:37.618Z,1.36
2022-11-01T07:35:07.970Z,1.36
2022-11-01T07:37:35.144Z,1.37
2022-11-01T07:40:03.457Z,1.43
2022-11-01T07:42:31.187Z,1.45
2022-11-01T07:44:58.539Z,1.44
2022-11-01T07:47:25.714Z,1.44
2022-11-01T07:49:54.402Z,1.48
2022-11-01T07:52:21.841Z,1.48
2022-11-01T07:54:48.994Z,1.46
2022-11-01T07:57:16.516Z,1.51
2022-11-01T07:59:43.671Z,1.54
2022-11-01T08:02:11.156Z,1.56
2022-11-01T08:04:38.601Z,1.62
2022-11-01T08:07:07.184Z,1.66
2022-11-01T08:09:34.620Z,1.68
2022-11-01T08:12:02.136Z,1.69
2022-11-01T08:14:29.330Z,1.70
2022-11-01T08:17:00.799Z,1.72
2022-11-01T08:19:28.288Z,1.73
2022-11-01T08:21:58.103Z,1.79
2022-11-01T08:24:27.706Z,1.85
2022-11-01T08:26:55.012Z,1.90
2022-11-01T08:29:22.482Z,1.94
2022-11-01T08:31:50.001Z,1.94
2022-11-01T08:34:17.337Z,1.94
2022-11-01T08:36:44.867Z,1.97
2022-11-01T08:39:12.555Z,1.98
2022-11-01T08:41:41.394Z,2.00
2022-11-01T08:44:08.717Z,1.99
2022-11-01T08:46:36.051Z,1.99
2022-11-01T08:49:03.478Z,2.01
2022-11-01T08:51:32.795Z,2.06
2022-11-01T08:54:00.184Z,2.07
2022-11-01T08:56:27.952Z,2.11
2022-11-01T08:58:56.968Z,2.14
2022-11-01T09:01:27.173Z,2.14
2022-11-01T09:03:56.318Z,2.17
2022-11-01T09:06:23.735Z,2.21
2022-11-01T09:08:51.422Z,2.18
2022-11-01T09:11:18.726Z,2.18
2022-11-01T09:13:45.996Z,2.21
2022-11-01T09:16:14.668Z,2.28
2022-11-01T09:18:42.392Z,2.34
2022-11-01T09:21:09.736Z,2.39
2022-11-01T09:23:37.932Z,2.42
2022-11-01T09:26:07.354Z,2.38
2022-11-01T09:28:35.536Z,2.43
2022-11-01T09:31:19.415Z,2.41
2022-11-01T09:33:49.552Z,2.44
2022-11-01T09:36:17.142Z,2.41
2022-11-01T09:38:44.447Z,2.35
2022-11-01T09:41:26.171Z,2.40
2022-11-01T09:43:54.576Z,2.42
2022-11-01T09:46:27.111Z,2.45
2022-11-01T09:48:58.285Z,2.48
2022-11-01T09:51:26.123Z,2.50
2022-11-01T09:53:56.512Z,2.40
2022-11-01T09:56:30.521Z,2.37
2022-11-01T09:59:07.466Z,2.35
2022-11-01T10:01:49.825Z,2.28
2022-11-01T10:04:48.968Z,2.37
2022-11-01T10:07:23.835Z,2.27
2022-11-01T10:09:55.730Z,2.37
2022-11-01T10:12:35.691Z,2.34
2022-11-01T10:15:20.055Z,2.37
2022-11-01T10:17:52.610Z,2.36
2022-11-01T10:20:22.836Z,2.38
2022-11-01T10:22:51.117Z,2.42
2022-11-01T10:25:23.531Z,2.50
2022-11-01T10:27:59.578Z,2.58
2022-11-01T10:30:28.986Z,2.60
2022-11-01T10:33:02.636Z,2.51
2022-11-01T10:35:35.799Z,2.47
2022-11-01T10:38:19.155Z,2.41
2022-11-01T10:40:55.524Z,2.34
2022-11-01T10:43:25.486Z,2.29
2022-11-01T10:45:55.992Z,2.36
2022-11-01T10:48:38.055Z,2.37
2022-11-01T10:51:09.904Z,2.42
2022-11-01T10:53:44.911Z,2.46
2022-11-01T10:56:21.313Z,2.45
2022-11-01T10:58:58.935Z,2.54
2022-11-01T11:01:30.944Z,2.46
2022-11-01T11:04:02.693Z,2.43
2022-11-01T11:06:31.911Z,2.43
2022-11-01T11:08:59.629Z,2.45
2022-11-01T11:11:33.785Z,2.48
2022-11-01T11:14:05.511Z,2.46
2022-11-01T11:16:37.752Z,2.41
2022-11-01T11:19:16.255Z,2.41
2022-11-01T11:21:47.196Z,2.44
2022-11-01T11:24:20.042Z,2.41
2022-11-01T11:26:53.993Z,2.43
2022-11-01T11:29:36.730Z,2.32
2022-11-01T11:32:08.395Z,2.21
2022-11-01T11:34:38.444Z,2.14
2022-11-01T11:37:15.306Z,2.10
2022-11-01T11:40:15.637Z,2.16
2022-11-01T11:42:44.548Z,2.24
2022-11-01T11:45:30.269Z,2.26
2022-11-01T11:48:14.573Z,2.27
2022-11-01T11:50:42.457Z,2.29
2022-11-01T11:53:22.245Z,2.33
2022-11-01T11:55:54.935Z,2.28
2022-11-01T11:58:27.890Z,2.13
2022-11-01T12:01:01.449Z,2.13
2022-11-01T12:03:29.280Z,2.10
2022-11-01T12:06:01.744Z,2.15
2022-11-01T12:08:45.036Z,2.23
2022-11-01T12:11:13.038Z,2.28
2022-11-01T12:13:42.713Z,2.31
2022-11-01T12:16:17.759Z,2.20
2022-11-01T12:18:53.774Z,2.15
2022-11-01T12:21:27.677Z,2.18
2022-11-01T12:24:01.439Z,2.20
2022-11-01T12:26:32.789Z,2.26
2022-11-01T12:29:18.012Z,2.32
2022-11-01T12:31:47.229Z,2.32
2022-11-01T12:34:20.994Z,2.29
2022-11-01T12:36:54.164Z,2.28
2022-11-01T12:39:35.396Z,2.21
2022-11-01T12:42:05.141Z,2.22
2022-11-01T12:44:37.371Z,2.24
2022-11-01T12:47:12.899Z,2.18
2022-11-01T12:49:49.495Z,2.28
2022-11-01T12:52:23.754Z,2.30
2022-11-01T12:55:00.767Z,2.29
2022-11-01T12:57:28.705Z,2.24
2022-11-01T12:59:56.581Z,2.24
2022-11-01T13:02:34.398Z,2.25
2022-11-01T13:05:05.701Z,2.18
2022-11-01T13:07:46.112Z,2.13
2022-11-01T13:10:22.272Z,2.08
2022-11-01T13:12:56.771Z,1.96
2022-11-01T13:15:31.480Z,1.96
2022-11-01T13:18:09.873Z,1.93
2022-11-01T13:20:50.270Z,1.92
2022-11-01T13:23:27.593Z,1.87
2022-11-01T13:26:03.052Z,1.78
2022-11-01T13:28:56.942Z,1.83
2022-11-01T13:31:32.777Z,1.80
2022-11-01T13:34:11.934Z,1.77
2022-11-01T13:36:46.599Z,1.74
2022-11-01T13:39:25.135Z,1.71
2022-11-01T13:41:59.943Z,1.71
2022-11-01T13:44:32.798Z,1.70
2022-11-01T13:47:12.383Z,1.66
2022-11-01T13:50:04.909Z,1.78
2022-11-01T13:52:35.028Z,1.68
2022-11-01T13:55:15.292Z,1.72
2022-11-01T13:57:45.295Z,1.74
2022-11-01T14:00:39.308Z,1.74
2022-11-01T14:03:24.679Z,1.76
2022-11-01T14:09:29.985Z,1.76
2022-11-01T14:11:58.850Z,1.77
2022-11-01T14:14:52.989Z,1.77
2022-11-01T14:17:51.474Z,1.78
2022-11-01T14:20:57.365Z,1.79
2022-11-01T14:23:58.787Z,1.79
2022-11-01T14:27:00.020Z,1.79
2022-11-01T14:29:27.435Z,1.78
2022-11-01T14:31:57.145Z,1.76
2022-11-01T14:34:36.393Z,1.77
2022-11-01T14:37:14.770Z,1.78
2022-11-01T14:39:48.641Z,1.76
2022-11-01T14:42:26.405Z,1.79
2022-11-01T14:44:58.691Z,1.79
2022-11-01T14:47:36.528Z,1.81
2022-11-01T14:50:14.953Z,1.81
2022-11-01T14:52:47.292Z,1.85
2022-11-01T14:55:20.949Z,1.86
2022-11-01T14:57:49.250Z,1.87
2022-11-01T15:00:25.256Z,1.87
2022-11-01T15:02:54.836Z,1.86
2022-11-01T15:05:22.560Z,1.82
2022-11-01T15:07:52.573Z,1.79
2022-11-01T15:10:21.232Z,1.82
2022-11-01T15:12:51.160Z,1.78
2022-11-01T15:15:22.257Z,1.85
2022-11-01T15:17:57.093Z,1.81
2022-11-01T15:20:29.060Z,1.84
2022-11-01T15:22:59.198Z,1.79
2022-11-01T15:25:27.289Z,1.85
2022-11-01T15:27:57.083Z,1.84
2022-11-01T15:30:27.431Z,1.81
2022-11-01T15:33:15.620Z,1.83
2022-11-01T15:35:43.168Z,1.82
2022-11-01T15:38:20.949Z,1.82
2022-11-01T15:40:50.621Z,1.85
2022-11-01T15:43:19.461Z,1.77
2022-11-01T15:45:49.139Z,1.82
2022-11-01T15:48:21.339Z,1.82
2022-11-01T15:50:51.760Z,1.85
2022-11-01T15:53:22.788Z,1.85
2022-11-01T15:55:53.494Z,1.87
2022-11-01T15:58:25.710Z,1.90
2022-11-01T16:00:56.245Z,1.90
2022-11-01T16:03:30.611Z,1.91
2022-11-01T16:06:01.657Z,1.87
2022-11-01T16:08:34.019Z,1.94
2022-11-01T16:11:02.065Z,1.96
2022-11-01T16:13:32.174Z,1.98
2022-11-01T16:16:02.742Z,1.95
2022-11-01T16:18:35.066Z,1.98
2022-11-01T16:21:05.276Z,1.96
2022-11-01T16:23:32.767Z,1.97
2022-11-01T16:26:01.621Z,1.90
2022-11-01T16:28:30.984Z,1.94
2022-11-01T16:30:58.727Z,1.96
2022-11-01T16:33:29.772Z,1.98
2022-11-01T16:36:00.231Z,1.96
2022-11-01T16:38:41.314Z,1.97
2022-11-01T16:41:16.481Z,1.96
2022-11-01T16:43:45.097Z,1.97
2022-11-01T16:46:12.314Z,1.98
2022-11-01T16:48:52.037Z,1.95
2022-11-01T16:51:24.601Z,2.00
2022-11-01T16:53:52.177Z,2.00
2022-11-01T16:56:40.998Z,1.99
2022-11-01T16:59:19.625Z,2.01
2022-11-01T17:01:47.326Z,2.02
2022-11-01T17:04:15.127Z,2.04
2022-11-01T17:06:44.193Z,2.04
2022-11-01T17:09:14.226Z,2.04
2022-11-01T17:11:45.060Z,2.06
2022-11-01T17:14:15.455Z,2.05
2022-11-01T17:16:44.854Z,2.03
2022-11-01T17:19:20.754Z,2.05
2022-11-01T17:21:51.330Z,2.07
2022-11-01T17:24:21.866Z,2.06
2022-11-01T17:26:50.740Z,2.04
2022-11-01T17:29:18.080Z,2.04
2022-11-01T17:31:45.292Z,2.04
2022-11-01T17:34:12.581Z,2.03
2022-11-01T17:36:43.708Z,2.05
2022-11-01T17:39:12.462Z,2.06
2022-11-01T17:41:39.926Z,2.05
2022-11-01T17:44:07.245Z,2.05
2022-11-01T17:46:34.527Z,2.02
2022-11-01T17:49:01.942Z,2.00
2022-11-01T17:51:29.375Z,1.97
2022-11-01T17:53:57.607Z,1.97
2022-11-01T17:56:26.312Z,1.97
2022-11-01T17:58:53.973Z,1.96
2022-11-01T18:01:21.979Z,2.01
2022-11-01T18:03:49.739Z,1.99
2022-11-01T18:06:17.060Z,1.97
2022-11-01T18:08:47.088Z,1.96
2022-11-01T18:11:31.508Z,1.96
2022-11-01T18:14:06.519Z,2.00
2022-11-01T18:16:44.321Z,2.02
2022-11-01T18:19:34.692Z,1.96
2022-11-01T18:22:09.824Z,2.01
2022-11-01T18:24:42.070Z,2.00
2022-11-01T18:27:11.065Z,2.00
2022-11-01T18:29:42.245Z,1.99
2022-11-01T18:32:17.035Z,2.02
2022-11-01T18:34:48.099Z,2.00
2022-11-01T18:37:25.005Z,2.00
2022-11-01T18:40:00.540Z,1.98
2022-11-01T18:42:28.302Z,1.98
2022-11-01T18:45:04.635Z,1.96
2022-11-01T18:47:37.301Z,2.00
2022-11-01T18:50:16.791Z,2.01
2022-11-01T18:52:44.046Z,2.03
2022-11-01T18:55:13.942Z,2.05
2022-11-01T18:57:41.416Z,2.06
2022-11-01T19:00:14.673Z,2.09
2022-11-01T19:02:42.105Z,2.06
2022-11-01T19:05:17.946Z,2.10
2022-11-01T19:08:10.184Z,2.10
2022-11-01T19:10:40.161Z,2.11
2022-11-01T19:13:12.882Z,2.12
2022-11-01T19:15:41.796Z,2.11
2022-11-01T19:18:16.058Z,2.13
2022-11-01T19:20:50.002Z,2.11
2022-11-01T19:23:22.143Z,2.13
2022-11-01T19:25:50.440Z,2.15
2022-11-01T19:28:26.784Z,2.13
2022-11-01T19:30:57.669Z,2.13
2022-11-01T19:33:32.509Z,2.09
2022-11-01T19:36:03.625Z,2.08
2022-11-01T19:38:31.614Z,2.09
2022-11-01T19:40:59.332Z,2.05
2022-11-01T19:43:28.010Z,2.07
2022-11-01T19:45:59.471Z,2.08
2022-11-01T19:48:29.065Z,2.03
2022-11-01T19:50:56.708Z,2.06
2022-11-01T19:53:28.208Z,2.07
2022-11-01T19:55:59.355Z,2.14
2022-11-01T19:58:44.993Z,2.16
2022-11-01T20:01:32.472Z,2.16
2022-11-01T20:04:01.437Z,2.14
2022-11-01T20:06:37.413Z,2.17
2022-11-01T20:09:09.293Z,2.17
2022-11-01T20:11:36.574Z,2.17
2022-11-01T20:14:03.996Z,2.17
2022-11-01T20:16:32.793Z,2.20
2022-11-01T20:19:00.072Z,2.20
2022-11-01T20:21:27.422Z,2.21
2022-11-01T20:23:57.055Z,2.17
2022-11-01T20:26:27.460Z,2.21
2022-11-01T20:28:56.066Z,2.19
2022-11-01T20:31:23.672Z,2.18
2022-11-01T20:33:52.436Z,2.17
2022-11-01T20:36:19.856Z,2.13
2022-11-01T20:38:47.514Z,2.12
2022-11-01T20:41:15.395Z,2.13
2022-11-01T20:43:43.455Z,2.10
2022-11-01T20:46:10.900Z,2.09
2022-11-01T20:48:45.416Z,2.10
2022-11-01T20:51:14.410Z,2.05
2022-11-01T20:53:42.156Z,2.05
2022-11-01T20:56:09.717Z,2.04
2022-11-01T20:58:40.567Z,2.06
2022-11-01T21:01:14.112Z,2.06
2022-11-01T21:03:41.760Z,2.07
2022-11-01T21:06:14.819Z,2.04
2022-11-01T21:08:43.297Z,2.08
2022-11-01T21:11:16.119Z,2.08
2022-11-01T21:13:45.778Z,2.11
2022-11-01T21:16:22.732Z,2.11
2022-11-01T21:18:53.929Z,2.08
2022-11-01T21:21:42.475Z,2.11
2022-11-01T21:24:31.555Z,2.14
2022-11-01T21:27:22.722Z,2.15
2022-11-01T21:29:50.486Z,2.14
2022-11-01T21:32:27.087Z,2.08
2022-11-01T21:34:54.905Z,2.16
2022-11-01T21:37:27.558Z,2.17
2022-11-01T21:40:03.190Z,2.19
2022-11-01T21:42:33.524Z,2.20
2022-11-01T21:45:02.893Z,2.21
2022-11-01T21:47:32.610Z,2.21
2022-11-01T21:49:59.924Z,2.21
2022-11-01T21:52:28.640Z,2.20
2022-11-01T21:54:56.028Z,2.17
2022-11-01T21:57:23.296Z,2.21
2022-11-01T21:59:51.950Z,2.21
2022-11-01T22:02:19.351Z,2.22
2022-11-01T22:04:46.805Z,2.25
2022-11-01T22:07:14.307Z,2.24
2022-11-01T22:09:42.870Z,2.25
2022-11-01T22:12:10.177Z,2.24
2022-11-01T22:14:37.685Z,2.26
2022-11-01T22:17:04.988Z,2.25
2022-11-01T22:19:32.429Z,2.25
2022-11-01T22:21:59.938Z,2.26
2022-11-01T22:24:27.328Z,2.22
2022-11-01T22:26:56.171Z,2.23
2022-11-01T22:29:23.483Z,2.24
2022-11-01T22:31:50.842Z,2.25
2022-11-01T22:34:18.102Z,2.27
2022-11-01T22:36:45.514Z,2.28
2022-11-01T22:39:17.469Z,2.29
2022-11-01T22:41:44.901Z,2.31
2022-11-01T22:44:15.011Z,2.30
2022-11-01T22:46:50.258Z,2.30
2022-11-01T22:49:23.366Z,2.29
2022-11-01T22:51:53.485Z,2.33
2022-11-01T22:54:33.090Z,2.32
2022-11-01T22:57:07.100Z,2.31
2022-11-01T22:59:39.680Z,2.31
2022-11-01T23:02:31.012Z,2.31
2022-11-01T23:05:17.012Z,2.28
2022-11-01T23:07:46.730Z,2.28
2022-11-01T23:10:24.064Z,2.28
2022-11-01T23:13:14.892Z,2.26
2022-11-01T23:15:44.770Z,2.25
2022-11-01T23:18:18.358Z,2.21
2022-11-01T23:20:51.191Z,2.21
2022-11-01T23:23:20.060Z,2.22
2022-11-01T23:25:47.906Z,2.19
2022-11-01T23:28:15.654Z,2.21
2022-11-01T23:30:48.004Z,2.18
2022-11-01T23:33:17.846Z,2.16
2022-11-01T23:35:52.200Z,2.17
2022-11-01T23:38:23.119Z,2.08
2022-11-01T23:40:53.539Z,2.19
2022-11-01T23:43:30.690Z,2.18
2022-11-01T23:46:00.835Z,2.22
2022-11-01T23:48:28.780Z,2.19
2022-11-01T23:50:56.647Z,2.17
2022-11-01T23:53:31.971Z,2.09
2022-11-01T23:56:00.282Z,2.10
2022-11-01T23:58:31.528Z,2.13
